Time;durP1;ratioP1;P1;durP2;ratioP2;P2;SDS_P1;SDS_P2;PMS_P1;PMS_P2;Temp;Humidity;BMP_temperature;BMP_pressure;BME280_temperature;BME280_humidity;BME280_pressure;Samples;Min_cycle;Max_cycle;Signal;HPM_P1;HPM_P2
2022/08/31 00:04:01;;;;;;;18.15;2.60;;;;;;;;;;5130055;27;20029;-61
2022/08/31 00:06:27;;;;;;;7.70;2.90;;;;;;;;;;5131579;27;20470;-60
2022/08/31 00:08:52;;;;;;;10.68;3.63;;;;;;;;;;5129778;27;20019;-61
2022/08/31 00:11:26;;;;;;;12.30;4.05;;;;;;;;;;5131993;27;20019;-60
2022/08/31 00:13:52;;;;;;;5.97;2.50;;;;;;;;;;5133103;27;20076;-60
2022/08/31 00:16:17;;;;;;;4.80;2.88;;;;;;;;;;5130806;27;20023;-60
2022/08/31 00:18:42;;;;;;;13.20;3.95;;;;;;;;;;5133162;27;20019;-60
2022/08/31 00:21:08;;;;;;;7.97;3.88;;;;;;;;;;5130620;27;20027;-60
2022/08/31 00:23:33;;;;;;;9.48;3.08;;;;;;;;;;5128181;27;20059;-61
2022/08/31 00:25:58;;;;;;;10.93;2.78;;;;;;;;;;5128386;27;20030;-60
2022/08/31 00:28:24;;;;;;;10.77;5.93;;;;;;;;;;5128120;27;20027;-61
2022/08/31 00:30:49;;;;;;;12.32;2.75;;;;;;;;;;5131184;27;20390;-61
2022/08/31 00:33:15;;;;;;;6.82;4.00;;;;;;;;;;5127929;27;20678;-61
2022/08/31 00:35:40;;;;;;;10.60;4.32;;;;;;;;;;5130114;27;20133;-60
2022/08/31 00:38:06;;;;;;;10.25;3.13;;;;;;;;;;5129699;27;20034;-61
2022/08/31 00:40:32;;;;;;;8.20;3.03;;;;;;;;;;5131254;27;20019;-60
2022/08/31 00:42:58;;;;;;;9.57;4.00;;;;;;;;;;5133880;27;20020;-60
2022/08/31 00:45:23;;;;;;;10.40;3.40;;;;;;;;;;5129158;27;20540;-60
2022/08/31 00:47:49;;;;;;;8.35;3.55;;;;;;;;;;5130815;27;20555;-60
2022/08/31 00:50:15;;;;;;;17.02;2.95;;;;;;;;;;5134483;27;20035;-60
2022/08/31 00:52:43;;;;;;;7.18;2.60;;;;;;;;;;5135654;27;20082;-60
2022/08/31 00:55:10;;;;;;;12.25;3.42;;;;;;;;;;5130571;27;20136;-60
2022/08/31 00:57:38;;;;;;;9.15;5.18;;;;;;;;;;5137551;27;20034;-61
2022/08/31 01:00:05;;;;;;;6.13;2.35;;;;;;;;;;5132175;27;20023;-61
2022/08/31 01:02:31;;;;;;;4.68;2.80;;;;;;;;;;5134620;27;20028;-59
2022/08/31 01:04:56;;;;;;;12.98;3.90;;;;;;;;;;5134963;27;20015;-59
2022/08/31 01:07:22;;;;;;;5.82;3.45;;;;;;;;;;5133247;27;20041;-60
2022/08/31 01:09:47;;;;;;;8.88;4.32;;;;;;;;;;5129674;27;20015;-59
2022/08/31 01:12:12;;;;;;;28.27;5.15;;;;;;;;;;5139083;27;20461;-59
2022/08/31 01:14:38;;;;;;;8.70;3.42;;;;;;;;;;5133239;27;20015;-59
2022/08/31 01:17:04;;;;;;;6.75;3.35;;;;;;;;;;5135727;27;20547;-59
2022/08/31 01:19:52;;;;;;;12.15;4.00;;;;;;;;;;5139108;27;20112;-59
2022/08/31 01:22:21;;;;;;;19.08;6.75;;;;;;;;;;5088107;27;20027;-60
2022/08/31 01:24:47;;;;;;;24.67;5.10;;;;;;;;;;5133867;27;20558;-58
2022/08/31 01:27:13;;;;;;;19.25;3.67;;;;;;;;;;5129880;27;20103;-58
2022/08/31 01:29:39;;;;;;;15.00;4.95;;;;;;;;;;5132776;27;20115;-58
2022/08/31 01:32:05;;;;;;;18.60;3.28;;;;;;;;;;5133963;27;20113;-58
2022/08/31 01:34:31;;;;;;;11.63;4.03;;;;;;;;;;5135490;27;20033;-57
2022/08/31 01:36:56;;;;;;;5.47;3.67;;;;;;;;;;5129899;27;20029;-58
2022/08/31 01:39:21;;;;;;;7.32;3.35;;;;;;;;;;5131527;27;20171;-59
2022/08/31 01:41:47;;;;;;;14.57;3.70;;;;;;;;;;5134165;27;20011;-58
2022/08/31 01:44:14;;;;;;;6.97;3.08;;;;;;;;;;5134151;27;20077;-58
2022/08/31 01:46:40;;;;;;;4.53;3.50;;;;;;;;;;5126151;27;20022;-59
2022/08/31 01:49:06;;;;;;;6.43;2.80;;;;;;;;;;5133769;27;20019;-58
2022/08/31 01:51:31;;;;;;;8.80;5.18;;;;;;;;;;5133602;27;20071;-58
2022/08/31 01:53:56;;;;;;;7.10;2.78;;;;;;;;;;5136965;27;20018;-58
2022/08/31 01:56:25;;;;;;;15.15;6.45;;;;;;;;;;5134000;27;20458;-58
2022/08/31 01:58:51;;;;;;;8.82;3.55;;;;;;;;;;5126596;27;20663;-58
2022/08/31 02:01:18;;;;;;;5.72;2.97;;;;;;;;;;5134175;27;20121;-58
2022/08/31 02:03:43;;;;;;;20.48;4.00;;;;;;;;;;5133323;27;20859;-58
2022/08/31 02:06:09;;;;;;;8.98;3.85;;;;;;;;;;5130185;27;20031;-58
2022/08/31 02:08:35;;;;;;;14.95;3.78;;;;;;;;;;5134323;27;20046;-58
2022/08/31 02:11:00;;;;;;;18.98;4.43;;;;;;;;;;5135089;27;20020;-58
2022/08/31 02:13:25;;;;;;;12.32;3.45;;;;;;;;;;5131738;27;20030;-58
2022/08/31 02:15:51;;;;;;;15.30;3.95;;;;;;;;;;5128663;27;20458;-58
2022/08/31 02:18:16;;;;;;;16.88;3.80;;;;;;;;;;5131165;27;20019;-58
2022/08/31 02:20:41;;;;;;;10.05;4.78;;;;;;;;;;5132923;27;20027;-58
2022/08/31 02:23:07;;;;;;;13.88;3.05;;;;;;;;;;5134788;27;20453;-58
2022/08/31 02:25:32;;;;;;;13.00;5.22;;;;;;;;;;5133756;27;20056;-58
2022/08/31 02:27:57;;;;;;;17.60;4.97;;;;;;;;;;5131551;27;20156;-58
2022/08/31 02:30:23;;;;;;;7.32;2.80;;;;;;;;;;5133356;27;20394;-58
2022/08/31 02:32:48;;;;;;;6.20;3.30;;;;;;;;;;5135292;27;20014;-58
2022/08/31 02:35:13;;;;;;;3.90;2.40;;;;;;;;;;5133414;27;20030;-58
2022/08/31 02:37:39;;;;;;;11.82;4.88;;;;;;;;;;5130546;27;20047;-58
2022/08/31 02:40:06;;;;;;;18.90;3.63;;;;;;;;;;5132913;27;20020;-57
2022/08/31 02:42:32;;;;;;;20.52;4.65;;;;;;;;;;5132741;27;20393;-58
2022/08/31 02:44:57;;;;;;;7.15;2.63;;;;;;;;;;5133191;27;20016;-58
2022/08/31 02:47:22;;;;;;;18.98;1.90;;;;;;;;;;5131242;27;20486;-58
2022/08/31 02:49:48;;;;;;;8.60;2.67;;;;;;;;;;5134287;27;20023;-58
2022/08/31 02:52:13;;;;;;;17.52;3.72;;;;;;;;;;5135976;27;20021;-58
2022/08/31 02:54:38;;;;;;;7.20;2.97;;;;;;;;;;5136810;27;20113;-58
2022/08/31 02:57:04;;;;;;;4.95;2.67;;;;;;;;;;5133316;27;20019;-58
2022/08/31 02:59:29;;;;;;;8.27;3.20;;;;;;;;;;5132569;27;20016;-58
2022/08/31 03:01:54;;;;;;;16.20;4.10;;;;;;;;;;5134794;27;20030;-59
2022/08/31 03:04:20;;;;;;;13.60;3.35;;;;;;;;;;5135999;27;20371;-58
2022/08/31 03:06:46;;;;;;;24.48;5.30;;;;;;;;;;5136030;27;20061;-60
2022/08/31 03:09:12;;;;;;;11.90;5.05;;;;;;;;;;5135060;27;20019;-60
2022/08/31 03:11:37;;;;;;;6.22;3.10;;;;;;;;;;5137454;27;20022;-60
2022/08/31 03:14:03;;;;;;;13.88;3.65;;;;;;;;;;5128549;27;20044;-60
2022/08/31 03:16:28;;;;;;;12.20;3.38;;;;;;;;;;5133657;27;20420;-60
2022/08/31 03:18:53;;;;;;;16.27;3.22;;;;;;;;;;5110402;27;20022;-59
2022/08/31 03:21:18;;;;;;;7.50;3.92;;;;;;;;;;5131274;27;20361;-59
2022/08/31 03:23:44;;;;;;;5.80;3.38;;;;;;;;;;5133865;27;20074;-59
2022/08/31 03:26:09;;;;;;;6.72;3.50;;;;;;;;;;5134606;27;20108;-59
2022/08/31 03:28:36;;;;;;;18.33;3.55;;;;;;;;;;5132393;27;20533;-59
2022/08/31 03:31:01;;;;;;;18.65;4.55;;;;;;;;;;5132926;27;20031;-59
2022/08/31 03:33:27;;;;;;;12.15;3.58;;;;;;;;;;5134421;27;20143;-59
2022/08/31 03:35:52;;;;;;;9.27;4.13;;;;;;;;;;5135533;27;20129;-59
2022/08/31 03:38:18;;;;;;;18.98;3.60;;;;;;;;;;5135192;27;20091;-59
2022/08/31 03:40:44;;;;;;;10.10;4.25;;;;;;;;;;5130276;27;20027;-59
2022/08/31 03:43:10;;;;;;;7.72;3.15;;;;;;;;;;5133836;27;20030;-60
2022/08/31 03:45:36;;;;;;;17.50;3.85;;;;;;;;;;5129849;27;20379;-60
2022/08/31 03:48:05;;;;;;;4.65;2.22;;;;;;;;;;5131525;27;20026;-60
2022/08/31 03:50:30;;;;;;;7.35;4.00;;;;;;;;;;5126266;27;20071;-59
2022/08/31 03:52:55;;;;;;;7.78;4.53;;;;;;;;;;5125814;27;20027;-60
2022/08/31 03:55:21;;;;;;;18.77;3.35;;;;;;;;;;5132597;27;20054;-60
2022/08/31 03:57:46;;;;;;;10.68;3.38;;;;;;;;;;5132692;27;20391;-59
2022/08/31 04:00:12;;;;;;;11.38;1.98;;;;;;;;;;5131341;27;20012;-58
2022/08/31 04:02:38;;;;;;;6.53;3.50;;;;;;;;;;5131038;27;20105;-58
2022/08/31 04:05:04;;;;;;;13.80;3.08;;;;;;;;;;5134207;27;20043;-60
2022/08/31 04:07:29;;;;;;;8.30;2.83;;;;;;;;;;5134455;27;20565;-59
2022/08/31 04:09:55;;;;;;;9.65;3.90;;;;;;;;;;5125462;27;20029;-59
2022/08/31 04:12:20;;;;;;;7.40;3.22;;;;;;;;;;5133168;27;20022;-59
2022/08/31 04:14:45;;;;;;;6.22;2.85;;;;;;;;;;5128907;27;20640;-59
2022/08/31 04:17:11;;;;;;;7.97;4.30;;;;;;;;;;5130842;27;20047;-59
2022/08/31 04:19:36;;;;;;;15.65;4.22;;;;;;;;;;5133070;27;20059;-59
2022/08/31 04:22:02;;;;;;;6.65;3.42;;;;;;;;;;5134017;27;20103;-59
2022/08/31 04:24:28;;;;;;;19.80;4.75;;;;;;;;;;5135601;27;20025;-59
2022/08/31 04:26:53;;;;;;;24.40;5.57;;;;;;;;;;5136795;27;20493;-59
2022/08/31 04:29:19;;;;;;;13.80;3.95;;;;;;;;;;5128426;27;20019;-59
2022/08/31 04:31:44;;;;;;;14.55;5.97;;;;;;;;;;5124345;27;20476;-60
2022/08/31 04:34:09;;;;;;;13.65;3.30;;;;;;;;;;5131793;27;20083;-59
2022/08/31 04:36:35;;;;;;;8.25;3.67;;;;;;;;;;5135724;27;20109;-59
2022/08/31 04:39:02;;;;;;;9.25;3.88;;;;;;;;;;5139696;27;20026;-58
2022/08/31 04:41:28;;;;;;;29.83;5.78;;;;;;;;;;5136647;27;20028;-59
2022/08/31 04:43:55;;;;;;;23.02;5.30;;;;;;;;;;5131847;27;20441;-59
2022/08/31 04:46:20;;;;;;;21.75;6.22;;;;;;;;;;5132588;27;20090;-58
2022/08/31 04:48:46;;;;;;;27.83;6.43;;;;;;;;;;5138698;27;20122;-59
2022/08/31 04:51:16;;;;;;;11.65;4.50;;;;;;;;;;5134928;27;20099;-59
2022/08/31 04:53:42;;;;;;;15.32;5.15;;;;;;;;;;5136153;27;20073;-59
2022/08/31 04:56:18;;;;;;;17.38;3.83;;;;;;;;;;5134204;27;20042;-59
2022/08/31 04:58:44;;;;;;;6.47;4.28;;;;;;;;;;5139738;27;20035;-59
2022/08/31 05:01:11;;;;;;;11.88;3.70;;;;;;;;;;5134374;27;20018;-60
2022/08/31 05:03:36;;;;;;;9.57;4.55;;;;;;;;;;5142832;27;20109;-60
2022/08/31 05:06:01;;;;;;;9.02;3.50;;;;;;;;;;5136191;27;20114;-60
2022/08/31 05:08:27;;;;;;;9.52;4.82;;;;;;;;;;5140509;27;20060;-60
2022/08/31 05:10:53;;;;;;;10.48;5.50;;;;;;;;;;5130623;27;20031;-60
2022/08/31 05:13:18;;;;;;;14.57;4.88;;;;;;;;;;5135800;27;20026;-59
2022/08/31 05:15:43;;;;;;;10.73;3.88;;;;;;;;;;5130777;27;20108;-60
2022/08/31 05:18:09;;;;;;;11.00;3.90;;;;;;;;;;5133901;27;20492;-60
2022/08/31 05:20:35;;;;;;;9.82;5.28;;;;;;;;;;5137740;27;20029;-60
2022/08/31 05:23:00;;;;;;;20.92;3.92;;;;;;;;;;5118226;27;20646;-60
2022/08/31 05:25:26;;;;;;;12.75;4.00;;;;;;;;;;5136417;27;20057;-59
2022/08/31 05:27:52;;;;;;;21.35;4.95;;;;;;;;;;5133546;27;20118;-59
2022/08/31 05:30:18;;;;;;;6.95;3.38;;;;;;;;;;5133282;27;20023;-59
2022/08/31 05:32:44;;;;;;;16.08;4.45;;;;;;;;;;5136213;27;20101;-59
2022/08/31 05:35:10;;;;;;;11.50;4.90;;;;;;;;;;5137193;27;20079;-59
2022/08/31 05:37:35;;;;;;;8.25;3.83;;;;;;;;;;5137032;27;20023;-59
2022/08/31 05:40:00;;;;;;;18.90;4.70;;;;;;;;;;5134851;27;20042;-59
2022/08/31 05:42:25;;;;;;;15.38;4.68;;;;;;;;;;5136028;27;20490;-59
2022/08/31 05:44:51;;;;;;;20.17;6.43;;;;;;;;;;5134184;27;20016;-59
2022/08/31 05:47:16;;;;;;;5.35;3.63;;;;;;;;;;5131910;27;20027;-59
2022/08/31 05:49:42;;;;;;;37.58;14.27;;;;;;;;;;5133826;27;20059;-59
2022/08/31 05:52:07;;;;;;;96.97;48.38;;;;;;;;;;5137846;27;20023;-60
2022/08/31 05:54:33;;;;;;;71.65;39.78;;;;;;;;;;5133456;27;20047;-60
2022/08/31 05:56:59;;;;;;;61.72;27.83;;;;;;;;;;5137006;27;20460;-59
2022/08/31 05:59:24;;;;;;;46.22;29.83;;;;;;;;;;5135259;27;20111;-60
2022/08/31 06:01:49;;;;;;;78.32;46.83;;;;;;;;;;5130348;27;20019;-61
2022/08/31 06:04:15;;;;;;;36.97;21.95;;;;;;;;;;5134957;27;20031;-60
2022/08/31 06:06:40;;;;;;;27.83;12.15;;;;;;;;;;5136574;27;20073;-62
2022/08/31 06:09:06;;;;;;;13.75;5.68;;;;;;;;;;5116012;27;20042;-60
2022/08/31 06:11:33;;;;;;;11.40;4.60;;;;;;;;;;5133570;27;20197;-60
2022/08/31 06:13:59;;;;;;;14.20;5.75;;;;;;;;;;5133033;27;20042;-60
2022/08/31 06:16:25;;;;;;;50.25;44.42;;;;;;;;;;5129312;27;20242;-60
2022/08/31 06:18:52;;;;;;;22.73;12.55;;;;;;;;;;5133808;27;20541;-60
2022/08/31 06:21:19;;;;;;;40.50;16.00;;;;;;;;;;5131963;27;20076;-63
2022/08/31 06:23:45;;;;;;;15.15;13.05;;;;;;;;;;5132544;27;20023;-60
2022/08/31 06:26:12;;;;;;;23.85;14.48;;;;;;;;;;5131018;27;20133;-60
2022/08/31 06:28:38;;;;;;;25.25;7.38;;;;;;;;;;5131967;27;20018;-60
2022/08/31 06:31:10;;;;;;;12.80;5.78;;;;;;;;;;5133698;27;20027;-60
2022/08/31 06:33:36;;;;;;;14.18;4.43;;;;;;;;;;5114627;27;20755;-60
2022/08/31 06:36:02;;;;;;;17.75;9.23;;;;;;;;;;5134639;27;20155;-60
2022/08/31 06:38:27;;;;;;;12.15;6.75;;;;;;;;;;5133865;27;20015;-60
2022/08/31 06:40:52;;;;;;;31.73;10.60;;;;;;;;;;5129952;27;20050;-60
2022/08/31 06:43:18;;;;;;;36.03;12.13;;;;;;;;;;5128185;27;20466;-61
2022/08/31 06:45:43;;;;;;;27.23;15.50;;;;;;;;;;5129778;27;20478;-60
2022/08/31 06:48:08;;;;;;;43.17;25.83;;;;;;;;;;5133150;27;20030;-60
2022/08/31 06:50:34;;;;;;;25.20;16.05;;;;;;;;;;5132634;27;20092;-61
2022/08/31 06:52:59;;;;;;;20.08;13.88;;;;;;;;;;5131431;27;20045;-61
2022/08/31 06:55:25;;;;;;;16.55;9.48;;;;;;;;;;5133817;27;20126;-61
2022/08/31 06:57:50;;;;;;;26.42;8.88;;;;;;;;;;5136522;27;20159;-60
2022/08/31 07:00:15;;;;;;;7.38;6.07;;;;;;;;;;5134179;27;20038;-60
2022/08/31 07:02:41;;;;;;;10.95;5.43;;;;;;;;;;5131439;27;20214;-60
2022/08/31 07:05:06;;;;;;;16.80;6.57;;;;;;;;;;5132635;27;20026;-59
2022/08/31 07:07:31;;;;;;;13.20;6.90;;;;;;;;;;5129714;27;20034;-59
2022/08/31 07:09:57;;;;;;;11.27;7.45;;;;;;;;;;5132166;27;20517;-59
2022/08/31 07:12:22;;;;;;;18.58;10.13;;;;;;;;;;5134142;27;20011;-59
2022/08/31 07:14:47;;;;;;;15.88;11.18;;;;;;;;;;5135441;27;20453;-59
2022/08/31 07:17:13;;;;;;;27.63;15.13;;;;;;;;;;5135149;27;20022;-59
2022/08/31 07:19:38;;;;;;;34.25;20.05;;;;;;;;;;5130945;27;20389;-58
2022/08/31 07:22:05;;;;;;;30.92;20.25;;;;;;;;;;5134037;27;20101;-59
2022/08/31 07:24:32;;;;;;;28.98;15.00;;;;;;;;;;5133699;27;20021;-59
2022/08/31 07:27:03;;;;;;;18.60;14.50;;;;;;;;;;5131077;27;20059;-59
2022/08/31 07:29:30;;;;;;;21.23;13.30;;;;;;;;;;5135368;27;20019;-60
2022/08/31 07:31:56;;;;;;;24.92;10.10;;;;;;;;;;5134527;27;20043;-59
2022/08/31 07:34:25;;;;;;;14.35;8.23;;;;;;;;;;5129680;27;20601;-59
2022/08/31 07:42:22;;;;;;;23.10;8.23;;;;;;;;;;5133453;27;20034;-59
2022/08/31 07:44:48;;;;;;;18.88;8.68;;;;;;;;;;5138047;27;20319;-59
2022/08/31 07:47:18;;;;;;;29.83;7.68;;;;;;;;;;5131111;27;20019;-58
2022/08/31 07:49:46;;;;;;;10.27;6.75;;;;;;;;;;5135248;27;20048;-59
2022/08/31 07:52:14;;;;;;;33.97;13.68;;;;;;;;;;5133578;27;20031;-59
2022/08/31 07:54:39;;;;;;;20.10;12.63;;;;;;;;;;5133740;27;20170;-59
2022/08/31 07:57:05;;;;;;;21.45;11.40;;;;;;;;;;5134543;27;20556;-59
2022/08/31 07:59:36;;;;;;;28.23;11.05;;;;;;;;;;5131131;27;20027;-59
2022/08/31 08:02:01;;;;;;;12.88;6.82;;;;;;;;;;5130492;27;20019;-59
2022/08/31 08:04:27;;;;;;;15.82;6.95;;;;;;;;;;5130211;27;20025;-59
2022/08/31 08:06:56;;;;;;;16.85;6.28;;;;;;;;;;5127735;27;20011;-58
2022/08/31 08:09:22;;;;;;;13.55;5.45;;;;;;;;;;5134059;27;20041;-60
2022/08/31 08:11:54;;;;;;;25.90;6.85;;;;;;;;;;5130827;27;20064;-59
2022/08/31 08:14:23;;;;;;;17.02;10.38;;;;;;;;;;5133941;27;20019;-59
2022/08/31 08:16:48;;;;;;;12.48;6.63;;;;;;;;;;5126066;27;20058;-59
2022/08/31 08:19:14;;;;;;;12.32;9.02;;;;;;;;;;5131509;27;20047;-59
2022/08/31 08:21:40;;;;;;;16.83;6.47;;;;;;;;;;5128289;27;20024;-59
2022/08/31 08:24:05;;;;;;;10.55;5.80;;;;;;;;;;5130099;27;20457;-58
2022/08/31 08:26:31;;;;;;;10.10;5.53;;;;;;;;;;5133971;27;20023;-58
2022/08/31 08:28:56;;;;;;;11.30;6.45;;;;;;;;;;5133183;27;20470;-58
2022/08/31 08:31:21;;;;;;;14.27;5.03;;;;;;;;;;5130311;27;20023;-58
2022/08/31 08:33:48;;;;;;;14.27;6.07;;;;;;;;;;5132096;27;20020;-58
2022/08/31 08:36:16;;;;;;;14.40;9.02;;;;;;;;;;5131189;27;20079;-58
2022/08/31 08:38:45;;;;;;;30.08;26.58;;;;;;;;;;5130820;27;20109;-58
2022/08/31 08:41:12;;;;;;;14.02;7.30;;;;;;;;;;5129719;27;20020;-58
2022/08/31 08:43:39;;;;;;;26.17;9.07;;;;;;;;;;5135046;27;20014;-57
2022/08/31 08:46:04;;;;;;;16.77;7.43;;;;;;;;;;5132654;27;20031;-58
2022/08/31 08:48:36;;;;;;;23.38;7.95;;;;;;;;;;5134043;27;20015;-58
2022/08/31 08:51:03;;;;;;;17.98;6.10;;;;;;;;;;5134924;27;20042;-59
2022/08/31 08:53:29;;;;;;;9.38;4.72;;;;;;;;;;5128933;27;20418;-58
2022/08/31 08:55:55;;;;;;;4.97;3.33;;;;;;;;;;5132148;27;20047;-58
2022/08/31 08:58:27;;;;;;;18.55;6.05;;;;;;;;;;5133034;27;20371;-59
2022/08/31 09:00:53;;;;;;;7.75;3.28;;;;;;;;;;5134986;27;20039;-58
2022/08/31 09:03:22;;;;;;;7.60;3.58;;;;;;;;;;5135314;27;20041;-58
2022/08/31 09:05:58;;;;;;;9.98;5.07;;;;;;;;;;5129881;27;20038;-58
2022/08/31 09:08:42;;;;;;;15.85;3.13;;;;;;;;;;5134787;27;20011;-58
2022/08/31 09:11:31;;;;;;;11.52;4.35;;;;;;;;;;5134214;27;20022;-58
2022/08/31 09:14:05;;;;;;;9.45;2.65;;;;;;;;;;5132540;27;20113;-58
2022/08/31 09:16:37;;;;;;;4.43;2.58;;;;;;;;;;5134012;27;20053;-58
2022/08/31 09:19:05;;;;;;;4.38;1.73;;;;;;;;;;5132640;27;20028;-58
2022/08/31 09:21:34;;;;;;;19.10;4.97;;;;;;;;;;5132687;27;20099;-59
2022/08/31 09:24:02;;;;;;;8.30;3.22;;;;;;;;;;5136662;27;20023;-58
2022/08/31 09:26:31;;;;;;;13.75;5.03;;;;;;;;;;5133881;27;20473;-44
2022/08/31 09:28:57;;;;;;;19.08;3.17;;;;;;;;;;5133631;27;20054;-44
2022/08/31 09:31:33;;;;;;;17.85;5.18;;;;;;;;;;5134975;27;20057;-43
2022/08/31 09:33:59;;;;;;;15.73;4.72;;;;;;;;;;5134647;27;20023;-42
2022/08/31 09:36:32;;;;;;;8.27;4.22;;;;;;;;;;5133302;27;20015;-42
2022/08/31 09:39:12;;;;;;;9.57;3.72;;;;;;;;;;5130766;27;20441;-46
2022/08/31 09:41:37;;;;;;;9.95;5.28;;;;;;;;;;5135423;27;20019;-43
2022/08/31 09:44:15;;;;;;;27.73;7.45;;;;;;;;;;5139484;27;20070;-42
2022/08/31 09:46:45;;;;;;;15.57;5.80;;;;;;;;;;5133424;27;20019;-46
2022/08/31 09:49:17;;;;;;;11.45;3.13;;;;;;;;;;5132538;27;20023;-42
2022/08/31 09:51:42;;;;;;;25.85;7.70;;;;;;;;;;5135088;27;20027;-45
2022/08/31 09:56:58;;;;;;;15.23;8.47;;;;;;;;;;5134656;27;20033;-46
2022/08/31 09:59:36;;;;;;;29.02;8.55;;;;;;;;;;5134080;27;20019;-43
2022/08/31 10:02:06;;;;;;;21.00;9.80;;;;;;;;;;5136375;27;20029;-41
2022/08/31 10:04:35;;;;;;;14.38;6.50;;;;;;;;;;5130741;27;20084;-41
2022/08/31 10:07:10;;;;;;;16.85;5.25;;;;;;;;;;5131086;27;20031;-42
2022/08/31 10:09:45;;;;;;;13.18;4.63;;;;;;;;;;5134681;27;20030;-41
2022/08/31 10:12:16;;;;;;;23.90;5.40;;;;;;;;;;5130597;27;20738;-43
2022/08/31 10:14:49;;;;;;;21.05;4.18;;;;;;;;;;5133643;27;20023;-43
2022/08/31 10:17:24;;;;;;;10.45;5.53;;;;;;;;;;5136040;27;20022;-42
2022/08/31 10:20:09;;;;;;;12.55;4.13;;;;;;;;;;5135107;27;20371;-44
2022/08/31 10:22:40;;;;;;;5.28;3.13;;;;;;;;;;5132317;27;20034;-41
2022/08/31 10:25:22;;;;;;;10.90;4.53;;;;;;;;;;5134367;27;20468;-43
2022/08/31 10:27:50;;;;;;;6.28;3.05;;;;;;;;;;5132119;27;20011;-41
2022/08/31 10:30:21;;;;;;;8.52;4.35;;;;;;;;;;5134722;27;20068;-42
2022/08/31 10:32:49;;;;;;;28.10;6.85;;;;;;;;;;5116164;27;20031;-41
2022/08/31 10:35:18;;;;;;;3.00;2.33;;;;;;;;;;5128042;27;20054;-41
2022/08/31 10:37:58;;;;;;;9.93;3.72;;;;;;;;;;5132484;27;20023;-45
2022/08/31 10:40:30;;;;;;;12.15;2.17;;;;;;;;;;5137147;27;20506;-44
2022/08/31 10:43:08;;;;;;;15.32;3.67;;;;;;;;;;5133656;27;20026;-42
2022/08/31 10:45:37;;;;;;;14.98;1.95;;;;;;;;;;5133607;27;20034;-44
2022/08/31 10:48:03;;;;;;;13.50;3.08;;;;;;;;;;5130615;27;20015;-41
2022/08/31 10:50:34;;;;;;;6.25;2.35;;;;;;;;;;5133371;27;20019;-43
2022/08/31 10:53:21;;;;;;;9.07;2.67;;;;;;;;;;5131828;27;20030;-40
2022/08/31 10:56:13;;;;;;;6.45;3.00;;;;;;;;;;5131404;27;20074;-41
2022/08/31 10:58:48;;;;;;;16.33;6.68;;;;;;;;;;5129725;27;20582;-43
2022/08/31 11:01:19;;;;;;;21.38;4.80;;;;;;;;;;5133050;27;20076;-45
2022/08/31 11:03:47;;;;;;;25.08;5.65;;;;;;;;;;5132263;27;20018;-43
2022/08/31 11:06:13;;;;;;;28.60;5.80;;;;;;;;;;5136379;27;20015;-44
2022/08/31 11:08:38;;;;;;;10.98;3.65;;;;;;;;;;5131527;27;20021;-43
2022/08/31 11:11:06;;;;;;;4.78;2.42;;;;;;;;;;5133029;27;20454;-47
2022/08/31 11:13:37;;;;;;;17.33;4.38;;;;;;;;;;5128352;27;20080;-42
2022/08/31 11:16:20;;;;;;;20.35;5.68;;;;;;;;;;5133483;27;20489;-45
2022/08/31 11:18:49;;;;;;;11.65;4.13;;;;;;;;;;5130192;27;20073;-41
2022/08/31 11:21:35;;;;;;;18.17;4.03;;;;;;;;;;5134653;27;20134;-42
2022/08/31 11:24:01;;;;;;;8.75;3.17;;;;;;;;;;5129746;27;20050;-41
2022/08/31 11:26:40;;;;;;;3.90;2.47;;;;;;;;;;5132458;27;20058;-44
2022/08/31 11:29:08;;;;;;;11.57;2.90;;;;;;;;;;5132276;27;20011;-44
2022/08/31 11:31:35;;;;;;;12.32;5.18;;;;;;;;;;5133364;27;20106;-41
2022/08/31 11:34:08;;;;;;;21.45;4.80;;;;;;;;;;5134778;27;20028;-41
2022/08/31 11:37:05;;;;;;;8.57;3.95;;;;;;;;;;5132489;27;20047;-43
2022/08/31 11:39:35;;;;;;;12.32;3.38;;;;;;;;;;5103941;27;20034;-43
2022/08/31 11:42:21;;;;;;;14.15;4.57;;;;;;;;;;5129166;27;20021;-46
2022/08/31 11:45:00;;;;;;;15.32;3.03;;;;;;;;;;5078725;27;20027;-46
2022/08/31 11:47:28;;;;;;;10.02;2.90;;;;;;;;;;5130517;27;20053;-43
2022/08/31 11:49:54;;;;;;;13.73;3.63;;;;;;;;;;5128038;27;20025;-46
2022/08/31 11:52:20;;;;;;;23.95;3.88;;;;;;;;;;5132110;27;20034;-43
2022/08/31 11:54:47;;;;;;;10.35;3.53;;;;;;;;;;5132662;27;20054;-42
2022/08/31 11:57:16;;;;;;;11.27;3.45;;;;;;;;;;5129914;27;20030;-43
2022/08/31 11:59:45;;;;;;;14.85;4.72;;;;;;;;;;5129599;27;20060;-48
2022/08/31 12:02:19;;;;;;;9.05;3.45;;;;;;;;;;5133061;27;20027;-43
2022/08/31 12:04:50;;;;;;;13.90;3.58;;;;;;;;;;5131047;27;20047;-46
2022/08/31 12:07:25;;;;;;;16.70;5.30;;;;;;;;;;5131245;27;20019;-42
2022/08/31 12:09:50;;;;;;;43.70;6.80;;;;;;;;;;5129495;27;20030;-44
2022/08/31 12:12:20;;;;;;;6.25;2.90;;;;;;;;;;5135462;27;20026;-44
2022/08/31 12:14:49;;;;;;;11.52;2.90;;;;;;;;;;5132668;27;20023;-42
2022/08/31 12:17:20;;;;;;;8.98;3.50;;;;;;;;;;5131265;27;20071;-45
2022/08/31 12:20:01;;;;;;;;;;;;;;;;;;5134581;27;20132;-44
2022/08/31 12:25:26;;;;;;;20.40;4.18;;;;;;;;;;5128957;27;20077;-43
2022/08/31 12:28:01;;;;;;;18.85;3.08;;;;;;;;;;5128105;27;20019;-43
2022/08/31 12:30:26;;;;;;;10.40;2.35;;;;;;;;;;5134227;27;20023;-45
2022/08/31 12:33:04;;;;;;;8.57;3.13;;;;;;;;;;5129935;27;20021;-45
2022/08/31 12:35:31;;;;;;;8.48;2.65;;;;;;;;;;5126610;27;20034;-43
2022/08/31 12:38:01;;;;;;;6.07;2.78;;;;;;;;;;5132021;27;20803;-43
2022/08/31 12:40:27;;;;;;;12.27;2.60;;;;;;;;;;5132555;27;20099;-47
2022/08/31 12:42:55;;;;;;;7.47;2.83;;;;;;;;;;5126021;27;20450;-43
2022/08/31 12:45:35;;;;;;;5.97;1.95;;;;;;;;;;5128521;27;20050;-43
2022/08/31 12:48:03;;;;;;;8.65;2.15;;;;;;;;;;5131854;27;20015;-45
2022/08/31 12:50:35;;;;;;;8.18;4.20;;;;;;;;;;5132994;27;20096;-43
2022/08/31 12:53:16;;;;;;;11.20;4.22;;;;;;;;;;5115793;27;20061;-45
2022/08/31 12:55:44;;;;;;;7.63;3.97;;;;;;;;;;5128255;27;20076;-49
2022/08/31 12:58:17;;;;;;;7.40;4.03;;;;;;;;;;5133568;27;20068;-43
2022/08/31 13:00:44;;;;;;;7.65;3.85;;;;;;;;;;5133185;27;20065;-48
2022/08/31 13:03:18;;;;;;;6.57;2.83;;;;;;;;;;5131555;27;20069;-49
2022/08/31 13:05:57;;;;;;;19.98;4.82;;;;;;;;;;5134571;27;20034;-49
2022/08/31 13:08:23;;;;;;;7.75;2.75;;;;;;;;;;5137319;27;20497;-48
2022/08/31 13:10:49;;;;;;;4.10;1.83;;;;;;;;;;5137232;27;20118;-46
2022/08/31 13:13:27;;;;;;;6.55;2.35;;;;;;;;;;5133462;27;20034;-43
2022/08/31 13:15:59;;;;;;;14.88;2.97;;;;;;;;;;5134459;27;20023;-44
2022/08/31 13:18:26;;;;;;;5.82;2.72;;;;;;;;;;5134023;27;20050;-47
2022/08/31 13:20:53;;;;;;;5.88;2.88;;;;;;;;;;5139478;27;20114;-46
2022/08/31 13:23:25;;;;;;;5.43;2.45;;;;;;;;;;5134659;27;20148;-42
2022/08/31 13:26:00;;;;;;;7.55;1.95;;;;;;;;;;5133960;27;20433;-43
2022/08/31 13:28:29;;;;;;;10.00;2.38;;;;;;;;;;5130839;27;20030;-44
2022/08/31 13:30:55;;;;;;;2.08;1.38;;;;;;;;;;5135562;27;20102;-45
2022/08/31 13:33:33;;;;;;;15.93;3.38;;;;;;;;;;5127768;27;20042;-45
2022/08/31 13:36:14;;;;;;;6.55;2.28;;;;;;;;;;5137348;27;20035;-44
2022/08/31 13:38:48;;;;;;;10.65;3.10;;;;;;;;;;5137656;27;20022;-45
2022/08/31 13:41:17;;;;;;;12.80;2.85;;;;;;;;;;5138486;27;20075;-43
2022/08/31 13:43:49;;;;;;;11.20;1.67;;;;;;;;;;5133551;27;20019;-45
2022/08/31 13:46:20;;;;;;;5.40;1.80;;;;;;;;;;5134540;27;20064;-45
2022/08/31 13:48:52;;;;;;;9.48;2.60;;;;;;;;;;5131059;27;20030;-45
2022/08/31 13:51:18;;;;;;;18.75;2.58;;;;;;;;;;5131993;27;20045;-44
2022/08/31 13:53:45;;;;;;;9.45;2.22;;;;;;;;;;5134079;27;20403;-47
2022/08/31 13:56:53;;;;;;;7.78;2.75;;;;;;;;;;5130914;27;20036;-48
2022/08/31 13:59:25;;;;;;;4.18;2.38;;;;;;;;;;5125374;27;20038;-48
2022/08/31 14:01:50;;;;;;;4.10;2.25;;;;;;;;;;5133621;27;20011;-44
2022/08/31 14:04:42;;;;;;;3.83;1.85;;;;;;;;;;5135273;27;20459;-44
2022/08/31 14:07:08;;;;;;;7.75;3.47;;;;;;;;;;5133719;27;20027;-46
2022/08/31 14:09:34;;;;;;;7.57;2.53;;;;;;;;;;5128588;27;20030;-50
2022/08/31 14:12:04;;;;;;;5.82;2.10;;;;;;;;;;5132971;27;20019;-43
2022/08/31 14:14:38;;;;;;;10.27;2.53;;;;;;;;;;5130849;27;20022;-44
2022/08/31 14:17:04;;;;;;;9.30;3.47;;;;;;;;;;5133053;27;20481;-45
2022/08/31 14:19:31;;;;;;;23.00;3.28;;;;;;;;;;5129682;27;20100;-48
2022/08/31 14:22:12;;;;;;;5.38;1.35;;;;;;;;;;5136649;27;20027;-48
2022/08/31 14:24:37;;;;;;;3.10;2.08;;;;;;;;;;5134559;27;20486;-49
2022/08/31 14:27:03;;;;;;;3.83;1.75;;;;;;;;;;5136000;27;20053;-45
2022/08/31 14:29:28;;;;;;;12.63;1.85;;;;;;;;;;5137445;27;20479;-44
2022/08/31 14:31:55;;;;;;;7.75;1.88;;;;;;;;;;5131964;27;20026;-44
2022/08/31 14:34:28;;;;;;;7.80;1.73;;;;;;;;;;5139625;27;20011;-43
2022/08/31 14:37:02;;;;;;;8.20;1.35;;;;;;;;;;5135165;27;20029;-46
2022/08/31 14:39:52;;;;;;;19.20;1.88;;;;;;;;;;5135051;27;20038;-48
2022/08/31 14:42:20;;;;;;;11.75;1.98;;;;;;;;;;5133066;27;20027;-43
2022/08/31 14:44:55;;;;;;;10.35;3.75;;;;;;;;;;5135614;27;20034;-45
2022/08/31 14:47:21;;;;;;;9.60;1.65;;;;;;;;;;5140952;27;20019;-48
2022/08/31 14:49:48;;;;;;;9.63;3.88;;;;;;;;;;5135749;27;20029;-47
2022/08/31 14:52:14;;;;;;;9.52;3.42;;;;;;;;;;5134405;27;20067;-45
2022/08/31 14:54:40;;;;;;;17.98;2.35;;;;;;;;;;5133448;27;20067;-47